Ardoch, North Dakota
Current Conditions -  °F | °C
As of 7:35 AM on Wednesday 22 Oct 2014 (Local Time) from KGAF Reporting Station
Clear Clear  
Wind Chill: 11°   Ceiling: Unl
Heat Index: 11°   Visibility: 10mi
Dew Point:   Wind: 21mph
Humidity: 67%   Direction: 160°SSE
Pressure: 29.78"   Gusts: 26mph
Location:  48.21°N, 97.34°W
Report Text: KGAF 221235Z AUTO 16018G23KT 10SM CLR 11/05 A2978 RMK AO2
Loading
Personal Weather Stations






























Interactive Weather Map
Tropical Storm Tracking
New forecast layout! Learn more

10-Day Weather Forecast

Advertisements
Track Severe Weather on mobile